sensor_id;sensor_type;location;lat;lon;timestamp;P1;durP1;ratioP1;P2;durP2;ratioP2
39518;SDS011;25200;53.394;10.414;2023-09-18T00:00:01;6.78;;;4.40;;
39518;SDS011;25200;53.394;10.414;2023-09-18T00:02:27;6.75;;;4.55;;
39518;SDS011;25200;53.394;10.414;2023-09-18T00:04:54;7.38;;;3.97;;
39518;SDS011;25200;53.394;10.414;2023-09-18T00:07:20;7.03;;;4.60;;
39518;SDS011;25200;53.394;10.414;2023-09-18T00:09:45;8.43;;;4.60;;
39518;SDS011;25200;53.394;10.414;2023-09-18T00:12:11;6.43;;;4.45;;
39518;SDS011;25200;53.394;10.414;2023-09-18T00:14:37;7.70;;;4.32;;
39518;SDS011;25200;53.394;10.414;2023-09-18T00:17:03;6.97;;;4.50;;
39518;SDS011;25200;53.394;10.414;2023-09-18T00:19:28;7.10;;;4.50;;
39518;SDS011;25200;53.394;10.414;2023-09-18T00:21:54;8.18;;;4.70;;
39518;SDS011;25200;53.394;10.414;2023-09-18T00:24:21;8.40;;;4.60;;
39518;SDS011;25200;53.394;10.414;2023-09-18T00:26:47;6.85;;;4.03;;
39518;SDS011;25200;53.394;10.414;2023-09-18T00:29:14;6.78;;;4.35;;
39518;SDS011;25200;53.394;10.414;2023-09-18T00:31:39;7.88;;;4.47;;
39518;SDS011;25200;53.394;10.414;2023-09-18T00:34:05;6.38;;;4.13;;
39518;SDS011;25200;53.394;10.414;2023-09-18T00:36:31;8.52;;;4.57;;
39518;SDS011;25200;53.394;10.414;2023-09-18T00:38:56;6.45;;;4.00;;
39518;SDS011;25200;53.394;10.414;2023-09-18T00:41:22;6.70;;;4.18;;
39518;SDS011;25200;53.394;10.414;2023-09-18T00:43:47;7.40;;;4.80;;
39518;SDS011;25200;53.394;10.414;2023-09-18T00:46:13;9.43;;;4.32;;
39518;SDS011;25200;53.394;10.414;2023-09-18T00:48:39;9.52;;;4.75;;
39518;SDS011;25200;53.394;10.414;2023-09-18T00:51:05;7.53;;;4.40;;
39518;SDS011;25200;53.394;10.414;2023-09-18T00:53:32;8.90;;;4.30;;
39518;SDS011;25200;53.394;10.414;2023-09-18T00:55:58;7.32;;;4.60;;
39518;SDS011;25200;53.394;10.414;2023-09-18T00:58:27;6.32;;;4.28;;
39518;SDS011;25200;53.394;10.414;2023-09-18T01:00:53;6.90;;;4.30;;
39518;SDS011;25200;53.394;10.414;2023-09-18T01:03:19;6.88;;;4.45;;
39518;SDS011;25200;53.394;10.414;2023-09-18T01:05:46;7.65;;;4.60;;
39518;SDS011;25200;53.394;10.414;2023-09-18T01:08:12;6.80;;;4.72;;
39518;SDS011;25200;53.394;10.414;2023-09-18T01:10:43;6.20;;;4.30;;
39518;SDS011;25200;53.394;10.414;2023-09-18T01:13:37;7.20;;;4.90;;
39518;SDS011;25200;53.394;10.414;2023-09-18T01:16:14;7.03;;;4.68;;
39518;SDS011;25200;53.394;10.414;2023-09-18T01:18:56;6.90;;;4.60;;
39518;SDS011;25200;53.394;10.414;2023-09-18T01:21:21;6.93;;;4.80;;
39518;SDS011;25200;53.394;10.414;2023-09-18T01:23:48;8.70;;;4.50;;
39518;SDS011;25200;53.394;10.414;2023-09-18T01:26:14;7.20;;;4.47;;
39518;SDS011;25200;53.394;10.414;2023-09-18T01:28:40;8.23;;;5.03;;
39518;SDS011;25200;53.394;10.414;2023-09-18T01:31:05;9.32;;;4.68;;
39518;SDS011;25200;53.394;10.414;2023-09-18T01:33:32;6.85;;;4.68;;
39518;SDS011;25200;53.394;10.414;2023-09-18T01:35:59;7.85;;;4.63;;
39518;SDS011;25200;53.394;10.414;2023-09-18T01:38:26;7.03;;;4.38;;
39518;SDS011;25200;53.394;10.414;2023-09-18T01:40:53;7.20;;;4.70;;
39518;SDS011;25200;53.394;10.414;2023-09-18T01:43:19;7.75;;;4.60;;
39518;SDS011;25200;53.394;10.414;2023-09-18T01:45:45;8.65;;;4.53;;
39518;SDS011;25200;53.394;10.414;2023-09-18T01:48:12;7.22;;;5.03;;
39518;SDS011;25200;53.394;10.414;2023-09-18T01:50:38;8.25;;;5.00;;
39518;SDS011;25200;53.394;10.414;2023-09-18T01:53:06;7.15;;;4.63;;
39518;SDS011;25200;53.394;10.414;2023-09-18T01:55:32;6.75;;;4.60;;
39518;SDS011;25200;53.394;10.414;2023-09-18T01:57:58;8.48;;;5.00;;
39518;SDS011;25200;53.394;10.414;2023-09-18T02:00:24;7.30;;;4.78;;
39518;SDS011;25200;53.394;10.414;2023-09-18T02:02:50;7.20;;;4.93;;
39518;SDS011;25200;53.394;10.414;2023-09-18T02:05:16;8.50;;;4.80;;
39518;SDS011;25200;53.394;10.414;2023-09-18T02:07:41;7.13;;;4.70;;
39518;SDS011;25200;53.394;10.414;2023-09-18T02:10:07;8.07;;;5.00;;
39518;SDS011;25200;53.394;10.414;2023-09-18T02:12:33;7.13;;;4.80;;
39518;SDS011;25200;53.394;10.414;2023-09-18T02:14:59;8.32;;;4.85;;
39518;SDS011;25200;53.394;10.414;2023-09-18T02:17:30;8.48;;;5.03;;
39518;SDS011;25200;53.394;10.414;2023-09-18T02:19:56;8.05;;;5.05;;
39518;SDS011;25200;53.394;10.414;2023-09-18T02:22:21;7.03;;;4.72;;
39518;SDS011;25200;53.394;10.414;2023-09-18T02:24:47;7.53;;;4.97;;
39518;SDS011;25200;53.394;10.414;2023-09-18T02:27:13;7.38;;;4.60;;
39518;SDS011;25200;53.394;10.414;2023-09-18T02:29:38;6.88;;;4.85;;
39518;SDS011;25200;53.394;10.414;2023-09-18T02:32:04;6.95;;;4.72;;
39518;SDS011;25200;53.394;10.414;2023-09-18T02:34:30;7.40;;;4.57;;
39518;SDS011;25200;53.394;10.414;2023-09-18T02:36:55;7.88;;;4.70;;
39518;SDS011;25200;53.394;10.414;2023-09-18T02:39:21;7.03;;;4.60;;
39518;SDS011;25200;53.394;10.414;2023-09-18T02:41:47;6.95;;;4.65;;
39518;SDS011;25200;53.394;10.414;2023-09-18T02:44:13;11.40;;;5.70;;
39518;SDS011;25200;53.394;10.414;2023-09-18T02:46:40;7.18;;;4.82;;
39518;SDS011;25200;53.394;10.414;2023-09-18T02:49:07;8.88;;;5.13;;
39518;SDS011;25200;53.394;10.414;2023-09-18T02:51:33;6.53;;;4.65;;
39518;SDS011;25200;53.394;10.414;2023-09-18T02:53:58;8.32;;;5.15;;
39518;SDS011;25200;53.394;10.414;2023-09-18T02:56:24;6.75;;;4.60;;
39518;SDS011;25200;53.394;10.414;2023-09-18T02:58:49;7.55;;;5.35;;
39518;SDS011;25200;53.394;10.414;2023-09-18T03:01:15;10.65;;;5.57;;
39518;SDS011;25200;53.394;10.414;2023-09-18T03:03:41;7.90;;;5.72;;
39518;SDS011;25200;53.394;10.414;2023-09-18T03:06:06;8.48;;;5.00;;
39518;SDS011;25200;53.394;10.414;2023-09-18T03:08:32;8.43;;;5.10;;
39518;SDS011;25200;53.394;10.414;2023-09-18T03:10:59;6.93;;;5.07;;
39518;SDS011;25200;53.394;10.414;2023-09-18T03:13:26;7.65;;;5.15;;
39518;SDS011;25200;53.394;10.414;2023-09-18T03:15:52;10.88;;;4.88;;
39518;SDS011;25200;53.394;10.414;2023-09-18T03:18:18;6.93;;;4.80;;
39518;SDS011;25200;53.394;10.414;2023-09-18T03:20:44;8.45;;;4.95;;
39518;SDS011;25200;53.394;10.414;2023-09-18T03:23:10;6.82;;;4.65;;
39518;SDS011;25200;53.394;10.414;2023-09-18T03:25:36;9.05;;;4.90;;
39518;SDS011;25200;53.394;10.414;2023-09-18T03:28:05;10.05;;;5.55;;
39518;SDS011;25200;53.394;10.414;2023-09-18T03:30:31;8.13;;;5.40;;
39518;SDS011;25200;53.394;10.414;2023-09-18T03:32:57;7.15;;;5.30;;
39518;SDS011;25200;53.394;10.414;2023-09-18T03:35:22;7.53;;;5.15;;
39518;SDS011;25200;53.394;10.414;2023-09-18T03:37:51;9.30;;;5.13;;
39518;SDS011;25200;53.394;10.414;2023-09-18T03:40:19;9.25;;;5.13;;
39518;SDS011;25200;53.394;10.414;2023-09-18T03:42:45;9.02;;;5.70;;
39518;SDS011;25200;53.394;10.414;2023-09-18T03:45:11;9.20;;;5.60;;
39518;SDS011;25200;53.394;10.414;2023-09-18T03:47:38;7.38;;;5.13;;
39518;SDS011;25200;53.394;10.414;2023-09-18T03:50:05;7.65;;;5.40;;
39518;SDS011;25200;53.394;10.414;2023-09-18T03:52:32;8.93;;;5.30;;
39518;SDS011;25200;53.394;10.414;2023-09-18T03:54:57;7.78;;;5.25;;
39518;SDS011;25200;53.394;10.414;2023-09-18T03:57:23;8.25;;;5.10;;
39518;SDS011;25200;53.394;10.414;2023-09-18T03:59:49;7.22;;;5.05;;
39518;SDS011;25200;53.394;10.414;2023-09-18T04:02:15;8.52;;;5.30;;
39518;SDS011;25200;53.394;10.414;2023-09-18T04:04:41;6.95;;;4.85;;
39518;SDS011;25200;53.394;10.414;2023-09-18T04:07:07;9.57;;;5.88;;
39518;SDS011;25200;53.394;10.414;2023-09-18T04:09:33;7.72;;;5.28;;
39518;SDS011;25200;53.394;10.414;2023-09-18T04:12:02;7.78;;;5.10;;
39518;SDS011;25200;53.394;10.414;2023-09-18T04:14:32;6.95;;;5.10;;
39518;SDS011;25200;53.394;10.414;2023-09-18T04:16:58;9.98;;;5.45;;
39518;SDS011;25200;53.394;10.414;2023-09-18T04:19:25;9.18;;;5.40;;
39518;SDS011;25200;53.394;10.414;2023-09-18T04:21:51;9.32;;;5.85;;
39518;SDS011;25200;53.394;10.414;2023-09-18T04:24:17;8.38;;;5.32;;
39518;SDS011;25200;53.394;10.414;2023-09-18T04:26:43;8.63;;;5.53;;
39518;SDS011;25200;53.394;10.414;2023-09-18T04:29:08;8.18;;;5.47;;
39518;SDS011;25200;53.394;10.414;2023-09-18T04:31:34;10.45;;;5.63;;
39518;SDS011;25200;53.394;10.414;2023-09-18T04:34:00;8.10;;;5.63;;
39518;SDS011;25200;53.394;10.414;2023-09-18T04:36:26;8.98;;;5.70;;
39518;SDS011;25200;53.394;10.414;2023-09-18T04:38:51;10.18;;;5.80;;
39518;SDS011;25200;53.394;10.414;2023-09-18T04:41:17;8.43;;;5.35;;
39518;SDS011;25200;53.394;10.414;2023-09-18T04:43:43;8.82;;;5.40;;
39518;SDS011;25200;53.394;10.414;2023-09-18T04:46:13;8.48;;;5.43;;
39518;SDS011;25200;53.394;10.414;2023-09-18T04:48:40;8.98;;;5.65;;
39518;SDS011;25200;53.394;10.414;2023-09-18T04:51:06;8.23;;;5.70;;
39518;SDS011;25200;53.394;10.414;2023-09-18T04:53:32;8.85;;;5.47;;
39518;SDS011;25200;53.394;10.414;2023-09-18T04:55:57;7.70;;;5.65;;
39518;SDS011;25200;53.394;10.414;2023-09-18T04:58:23;9.10;;;5.68;;
39518;SDS011;25200;53.394;10.414;2023-09-18T05:00:59;8.93;;;5.78;;
39518;SDS011;25200;53.394;10.414;2023-09-18T05:03:25;7.45;;;5.32;;
39518;SDS011;25200;53.394;10.414;2023-09-18T05:05:54;7.80;;;5.28;;
39518;SDS011;25200;53.394;10.414;2023-09-18T05:08:20;7.55;;;5.20;;
39518;SDS011;25200;53.394;10.414;2023-09-18T05:10:45;8.68;;;6.00;;
39518;SDS011;25200;53.394;10.414;2023-09-18T05:13:12;8.55;;;5.90;;
39518;SDS011;25200;53.394;10.414;2023-09-18T05:15:38;8.05;;;5.72;;
39518;SDS011;25200;53.394;10.414;2023-09-18T05:18:04;9.30;;;5.90;;
39518;SDS011;25200;53.394;10.414;2023-09-18T05:20:30;7.82;;;5.55;;
39518;SDS011;25200;53.394;10.414;2023-09-18T05:22:57;7.97;;;5.55;;
39518;SDS011;25200;53.394;10.414;2023-09-18T05:25:25;9.75;;;6.15;;
39518;SDS011;25200;53.394;10.414;2023-09-18T05:27:54;9.45;;;5.53;;
39518;SDS011;25200;53.394;10.414;2023-09-18T05:30:25;7.10;;;5.32;;
39518;SDS011;25200;53.394;10.414;2023-09-18T05:32:53;9.60;;;5.97;;
39518;SDS011;25200;53.394;10.414;2023-09-18T05:35:20;8.40;;;6.07;;
39518;SDS011;25200;53.394;10.414;2023-09-18T05:37:46;9.20;;;6.28;;
39518;SDS011;25200;53.394;10.414;2023-09-18T05:40:12;9.05;;;6.22;;
39518;SDS011;25200;53.394;10.414;2023-09-18T05:42:39;8.73;;;5.30;;
39518;SDS011;25200;53.394;10.414;2023-09-18T05:45:09;8.70;;;5.35;;
39518;SDS011;25200;53.394;10.414;2023-09-18T05:47:38;9.55;;;5.68;;
39518;SDS011;25200;53.394;10.414;2023-09-18T05:50:07;8.15;;;5.93;;
39518;SDS011;25200;53.394;10.414;2023-09-18T05:52:34;8.63;;;5.53;;
39518;SDS011;25200;53.394;10.414;2023-09-18T05:55:01;10.20;;;5.68;;
39518;SDS011;25200;53.394;10.414;2023-09-18T05:57:28;10.20;;;5.72;;
39518;SDS011;25200;53.394;10.414;2023-09-18T05:59:54;9.07;;;5.88;;
39518;SDS011;25200;53.394;10.414;2023-09-18T06:02:21;8.07;;;5.70;;
39518;SDS011;25200;53.394;10.414;2023-09-18T06:04:46;7.93;;;5.25;;
39518;SDS011;25200;53.394;10.414;2023-09-18T06:07:12;8.77;;;5.72;;
39518;SDS011;25200;53.394;10.414;2023-09-18T06:09:38;10.52;;;6.25;;
39518;SDS011;25200;53.394;10.414;2023-09-18T06:12:04;9.15;;;6.20;;
39518;SDS011;25200;53.394;10.414;2023-09-18T06:14:30;8.52;;;5.88;;
39518;SDS011;25200;53.394;10.414;2023-09-18T06:16:59;9.15;;;5.82;;
39518;SDS011;25200;53.394;10.414;2023-09-18T06:19:24;9.43;;;6.20;;
39518;SDS011;25200;53.394;10.414;2023-09-18T06:21:50;7.30;;;5.43;;
39518;SDS011;25200;53.394;10.414;2023-09-18T06:24:15;8.73;;;5.90;;
39518;SDS011;25200;53.394;10.414;2023-09-18T06:26:41;8.10;;;5.68;;
39518;SDS011;25200;53.394;10.414;2023-09-18T06:29:07;10.27;;;6.30;;
39518;SDS011;25200;53.394;10.414;2023-09-18T06:31:34;10.02;;;5.82;;
39518;SDS011;25200;53.394;10.414;2023-09-18T06:34:00;8.63;;;5.53;;
39518;SDS011;25200;53.394;10.414;2023-09-18T06:36:26;8.23;;;5.90;;
39518;SDS011;25200;53.394;10.414;2023-09-18T06:38:51;8.63;;;5.65;;
39518;SDS011;25200;53.394;10.414;2023-09-18T06:41:18;8.93;;;5.20;;
39518;SDS011;25200;53.394;10.414;2023-09-18T06:43:43;8.15;;;5.78;;
39518;SDS011;25200;53.394;10.414;2023-09-18T06:46:09;8.07;;;5.60;;
39518;SDS011;25200;53.394;10.414;2023-09-18T06:48:35;8.68;;;5.80;;
39518;SDS011;25200;53.394;10.414;2023-09-18T06:51:01;9.52;;;5.75;;
39518;SDS011;25200;53.394;10.414;2023-09-18T06:53:27;8.10;;;5.20;;
39518;SDS011;25200;53.394;10.414;2023-09-18T06:55:53;8.85;;;5.80;;
39518;SDS011;25200;53.394;10.414;2023-09-18T06:58:19;10.60;;;5.18;;
39518;SDS011;25200;53.394;10.414;2023-09-18T07:00:44;9.48;;;5.38;;
39518;SDS011;25200;53.394;10.414;2023-09-18T07:03:11;12.75;;;5.60;;
39518;SDS011;25200;53.394;10.414;2023-09-18T07:05:37;8.57;;;5.25;;
39518;SDS011;25200;53.394;10.414;2023-09-18T07:08:03;7.55;;;5.13;;
39518;SDS011;25200;53.394;10.414;2023-09-18T07:10:30;8.13;;;5.28;;
39518;SDS011;25200;53.394;10.414;2023-09-18T07:12:58;9.20;;;5.40;;
39518;SDS011;25200;53.394;10.414;2023-09-18T07:15:23;8.10;;;5.25;;
39518;SDS011;25200;53.394;10.414;2023-09-18T07:17:49;7.78;;;4.93;;
39518;SDS011;25200;53.394;10.414;2023-09-18T07:20:14;8.20;;;5.32;;
39518;SDS011;25200;53.394;10.414;2023-09-18T07:22:44;7.97;;;5.07;;
39518;SDS011;25200;53.394;10.414;2023-09-18T07:25:12;9.35;;;5.30;;
39518;SDS011;25200;53.394;10.414;2023-09-18T07:27:37;8.43;;;5.07;;
39518;SDS011;25200;53.394;10.414;2023-09-18T07:30:05;7.40;;;5.13;;
39518;SDS011;25200;53.394;10.414;2023-09-18T07:32:31;9.25;;;5.40;;
39518;SDS011;25200;53.394;10.414;2023-09-18T07:34:57;8.95;;;4.70;;
39518;SDS011;25200;53.394;10.414;2023-09-18T07:37:23;9.90;;;5.07;;
39518;SDS011;25200;53.394;10.414;2023-09-18T07:39:49;7.03;;;4.93;;
39518;SDS011;25200;53.394;10.414;2023-09-18T07:42:14;6.65;;;4.50;;
39518;SDS011;25200;53.394;10.414;2023-09-18T07:44:40;7.32;;;5.30;;
39518;SDS011;25200;53.394;10.414;2023-09-18T07:47:06;8.98;;;4.95;;
39518;SDS011;25200;53.394;10.414;2023-09-18T07:49:31;8.80;;;5.05;;
39518;SDS011;25200;53.394;10.414;2023-09-18T07:51:58;8.73;;;5.30;;
39518;SDS011;25200;53.394;10.414;2023-09-18T07:54:24;7.00;;;4.93;;
39518;SDS011;25200;53.394;10.414;2023-09-18T07:56:49;10.45;;;4.88;;
39518;SDS011;25200;53.394;10.414;2023-09-18T07:59:15;8.13;;;5.20;;
39518;SDS011;25200;53.394;10.414;2023-09-18T08:01:41;7.15;;;4.82;;
39518;SDS011;25200;53.394;10.414;2023-09-18T08:04:07;8.43;;;5.32;;
39518;SDS011;25200;53.394;10.414;2023-09-18T08:06:33;8.63;;;5.03;;
39518;SDS011;25200;53.394;10.414;2023-09-18T08:08:59;6.43;;;4.47;;
39518;SDS011;25200;53.394;10.414;2023-09-18T08:11:25;6.90;;;4.90;;
39518;SDS011;25200;53.394;10.414;2023-09-18T08:13:51;6.22;;;4.68;;
39518;SDS011;25200;53.394;10.414;2023-09-18T08:16:17;7.43;;;4.50;;
39518;SDS011;25200;53.394;10.414;2023-09-18T08:18:43;7.15;;;4.65;;
39518;SDS011;25200;53.394;10.414;2023-09-18T08:21:08;8.25;;;4.85;;
39518;SDS011;25200;53.394;10.414;2023-09-18T08:23:35;6.63;;;4.47;;
39518;SDS011;25200;53.394;10.414;2023-09-18T08:26:01;8.18;;;5.18;;
39518;SDS011;25200;53.394;10.414;2023-09-18T08:28:28;6.93;;;4.60;;
39518;SDS011;25200;53.394;10.414;2023-09-18T08:30:55;7.97;;;5.03;;
39518;SDS011;25200;53.394;10.414;2023-09-18T08:33:20;8.70;;;4.75;;
39518;SDS011;25200;53.394;10.414;2023-09-18T08:35:46;8.35;;;4.95;;
39518;SDS011;25200;53.394;10.414;2023-09-18T08:38:14;7.70;;;4.65;;
39518;SDS011;25200;53.394;10.414;2023-09-18T08:40:40;7.65;;;4.40;;
39518;SDS011;25200;53.394;10.414;2023-09-18T08:43:10;8.35;;;4.65;;
39518;SDS011;25200;53.394;10.414;2023-09-18T08:45:51;7.00;;;4.60;;
39518;SDS011;25200;53.394;10.414;2023-09-18T08:48:17;7.90;;;4.68;;
39518;SDS011;25200;53.394;10.414;2023-09-18T08:50:45;8.30;;;4.85;;
39518;SDS011;25200;53.394;10.414;2023-09-18T08:53:12;6.50;;;4.15;;
39518;SDS011;25200;53.394;10.414;2023-09-18T08:55:38;8.65;;;4.18;;
39518;SDS011;25200;53.394;10.414;2023-09-18T08:58:06;9.27;;;4.28;;
39518;SDS011;25200;53.394;10.414;2023-09-18T09:00:36;6.35;;;4.07;;
39518;SDS011;25200;53.394;10.414;2023-09-18T09:03:03;8.50;;;4.10;;
39518;SDS011;25200;53.394;10.414;2023-09-18T09:05:29;6.88;;;4.30;;
39518;SDS011;25200;53.394;10.414;2023-09-18T09:07:56;7.15;;;3.85;;
39518;SDS011;25200;53.394;10.414;2023-09-18T09:10:21;9.27;;;4.32;;
39518;SDS011;25200;53.394;10.414;2023-09-18T09:12:48;8.77;;;4.38;;
39518;SDS011;25200;53.394;10.414;2023-09-18T09:15:19;6.72;;;3.90;;
39518;SDS011;25200;53.394;10.414;2023-09-18T09:17:49;7.60;;;4.13;;
39518;SDS011;25200;53.394;10.414;2023-09-18T09:20:16;6.32;;;3.92;;
39518;SDS011;25200;53.394;10.414;2023-09-18T09:22:43;7.47;;;4.20;;
39518;SDS011;25200;53.394;10.414;2023-09-18T09:25:23;8.93;;;3.97;;
39518;SDS011;25200;53.394;10.414;2023-09-18T09:27:51;11.77;;;4.55;;
39518;SDS011;25200;53.394;10.414;2023-09-18T09:30:22;6.90;;;3.92;;
39518;SDS011;25200;53.394;10.414;2023-09-18T09:32:50;7.68;;;4.20;;
39518;SDS011;25200;53.394;10.414;2023-09-18T09:35:23;6.95;;;4.10;;
39518;SDS011;25200;53.394;10.414;2023-09-18T09:38:12;7.97;;;3.90;;
39518;SDS011;25200;53.394;10.414;2023-09-18T09:40:41;7.07;;;4.13;;
39518;SDS011;25200;53.394;10.414;2023-09-18T09:43:10;6.93;;;3.75;;
39518;SDS011;25200;53.394;10.414;2023-09-18T09:45:38;6.93;;;4.20;;
39518;SDS011;25200;53.394;10.414;2023-09-18T09:48:05;6.57;;;3.90;;
39518;SDS011;25200;53.394;10.414;2023-09-18T09:50:32;6.40;;;3.80;;
39518;SDS011;25200;53.394;10.414;2023-09-18T09:52:58;6.13;;;3.90;;
39518;SDS011;25200;53.394;10.414;2023-09-18T09:55:28;6.75;;;3.60;;
39518;SDS011;25200;53.394;10.414;2023-09-18T09:57:59;6.43;;;3.97;;
39518;SDS011;25200;53.394;10.414;2023-09-18T10:00:48;5.95;;;3.40;;
39518;SDS011;25200;53.394;10.414;2023-09-18T10:03:15;7.75;;;3.90;;
39518;SDS011;25200;53.394;10.414;2023-09-18T10:05:43;7.72;;;3.75;;
39518;SDS011;25200;53.394;10.414;2023-09-18T10:08:17;7.28;;;3.58;;
39518;SDS011;25200;53.394;10.414;2023-09-18T10:10:54;5.70;;;3.50;;
39518;SDS011;25200;53.394;10.414;2023-09-18T10:13:55;5.43;;;3.53;;
39518;SDS011;25200;53.394;10.414;2023-09-18T10:16:22;5.75;;;3.20;;
39518;SDS011;25200;53.394;10.414;2023-09-18T10:24:30;8.32;;;3.88;;
39518;SDS011;25200;53.394;10.414;2023-09-18T10:27:01;8.45;;;4.20;;
39518;SDS011;25200;53.394;10.414;2023-09-18T10:29:28;7.35;;;3.42;;
39518;SDS011;25200;53.394;10.414;2023-09-18T10:31:56;7.10;;;3.97;;
39518;SDS011;25200;53.394;10.414;2023-09-18T10:34:22;7.85;;;3.78;;
39518;SDS011;25200;53.394;10.414;2023-09-18T10:36:51;7.80;;;3.67;;
39518;SDS011;25200;53.394;10.414;2023-09-18T10:39:17;6.43;;;3.67;;
39518;SDS011;25200;53.394;10.414;2023-09-18T10:41:49;10.23;;;4.22;;
39518;SDS011;25200;53.394;10.414;2023-09-18T10:44:17;8.05;;;3.80;;
39518;SDS011;25200;53.394;10.414;2023-09-18T10:46:49;5.80;;;3.50;;
39518;SDS011;25200;53.394;10.414;2023-09-18T10:49:18;6.15;;;3.22;;
39518;SDS011;25200;53.394;10.414;2023-09-18T10:51:45;7.75;;;3.90;;
39518;SDS011;25200;53.394;10.414;2023-09-18T10:54:15;6.78;;;3.72;;
39518;SDS011;25200;53.394;10.414;2023-09-18T10:56:45;9.40;;;3.85;;
39518;SDS011;25200;53.394;10.414;2023-09-18T10:59:10;7.22;;;3.55;;
39518;SDS011;25200;53.394;10.414;2023-09-18T11:01:36;8.02;;;3.97;;
39518;SDS011;25200;53.394;10.414;2023-09-18T11:04:03;7.90;;;3.58;;
39518;SDS011;25200;53.394;10.414;2023-09-18T11:07:17;6.57;;;3.70;;
39518;SDS011;25200;53.394;10.414;2023-09-18T11:09:19;7.40;;;3.47;;
39518;SDS011;25200;53.394;10.414;2023-09-18T11:11:46;7.72;;;3.88;;
39518;SDS011;25200;53.394;10.414;2023-09-18T11:14:17;6.78;;;3.70;;
39518;SDS011;25200;53.394;10.414;2023-09-18T11:16:42;9.18;;;3.83;;
39518;SDS011;25200;53.394;10.414;2023-09-18T11:19:10;7.78;;;3.50;;
39518;SDS011;25200;53.394;10.414;2023-09-18T11:21:38;7.45;;;3.90;;
39518;SDS011;25200;53.394;10.414;2023-09-18T11:24:11;6.82;;;3.70;;
39518;SDS011;25200;53.394;10.414;2023-09-18T11:26:46;8.05;;;3.55;;
39518;SDS011;25200;53.394;10.414;2023-09-18T11:29:14;6.13;;;3.45;;
39518;SDS011;25200;53.394;10.414;2023-09-18T11:31:45;7.32;;;3.60;;
39518;SDS011;25200;53.394;10.414;2023-09-18T11:36:51;6.40;;;3.67;;
39518;SDS011;25200;53.394;10.414;2023-09-18T11:42:13;7.93;;;3.55;;
39518;SDS011;25200;53.394;10.414;2023-09-18T11:44:43;7.43;;;3.60;;
39518;SDS011;25200;53.394;10.414;2023-09-18T11:47:16;8.40;;;3.13;;
39518;SDS011;25200;53.394;10.414;2023-09-18T11:49:57;8.40;;;3.63;;
39518;SDS011;25200;53.394;10.414;2023-09-18T11:52:24;9.50;;;3.53;;
39518;SDS011;25200;53.394;10.414;2023-09-18T11:54:58;7.25;;;3.40;;
39518;SDS011;25200;53.394;10.414;2023-09-18T11:57:24;8.10;;;3.65;;
39518;SDS011;25200;53.394;10.414;2023-09-18T11:59:51;9.10;;;3.80;;
39518;SDS011;25200;53.394;10.414;2023-09-18T12:05:15;6.47;;;3.22;;
39518;SDS011;25200;53.394;10.414;2023-09-18T12:07:43;9.45;;;3.45;;
39518;SDS011;25200;53.394;10.414;2023-09-18T12:10:11;8.68;;;3.67;;
39518;SDS011;25200;53.394;10.414;2023-09-18T12:12:39;8.70;;;3.53;;
39518;SDS011;25200;53.394;10.414;2023-09-18T12:15:06;7.78;;;3.15;;
39518;SDS011;25200;53.394;10.414;2023-09-18T12:17:35;11.60;;;3.00;;
39518;SDS011;25200;53.394;10.414;2023-09-18T12:20:01;8.52;;;3.38;;
39518;SDS011;25200;53.394;10.414;2023-09-18T12:22:29;5.03;;;2.83;;
39518;SDS011;25200;53.394;10.414;2023-09-18T12:25:12;7.88;;;2.97;;
39518;SDS011;25200;53.394;10.414;2023-09-18T12:27:39;7.35;;;2.70;;
39518;SDS011;25200;53.394;10.414;2023-09-18T12:30:06;8.52;;;3.10;;
39518;SDS011;25200;53.394;10.414;2023-09-18T12:32:35;6.82;;;2.80;;
39518;SDS011;25200;53.394;10.414;2023-09-18T12:35:03;5.78;;;2.75;;
39518;SDS011;25200;53.394;10.414;2023-09-18T12:37:32;8.55;;;2.70;;
39518;SDS011;25200;53.394;10.414;2023-09-18T12:39:59;5.68;;;2.63;;
39518;SDS011;25200;53.394;10.414;2023-09-18T12:42:25;6.72;;;2.60;;
39518;SDS011;25200;53.394;10.414;2023-09-18T12:44:51;7.30;;;2.40;;
39518;SDS011;25200;53.394;10.414;2023-09-18T12:47:19;7.22;;;2.60;;
39518;SDS011;25200;53.394;10.414;2023-09-18T12:49:45;9.30;;;2.35;;
39518;SDS011;25200;53.394;10.414;2023-09-18T12:52:12;8.82;;;2.50;;
39518;SDS011;25200;53.394;10.414;2023-09-18T12:54:45;5.80;;;2.22;;
39518;SDS011;25200;53.394;10.414;2023-09-18T12:57:17;5.68;;;2.35;;
39518;SDS011;25200;53.394;10.414;2023-09-18T12:59:43;4.93;;;2.20;;
39518;SDS011;25200;53.394;10.414;2023-09-18T13:02:09;7.85;;;2.45;;
39518;SDS011;25200;53.394;10.414;2023-09-18T13:04:38;8.48;;;2.58;;
39518;SDS011;25200;53.394;10.414;2023-09-18T13:07:10;5.35;;;2.25;;
39518;SDS011;25200;53.394;10.414;2023-09-18T13:09:37;9.75;;;2.25;;
39518;SDS011;25200;53.394;10.414;2023-09-18T13:12:03;7.85;;;2.35;;
39518;SDS011;25200;53.394;10.414;2023-09-18T13:14:30;7.05;;;2.47;;
39518;SDS011;25200;53.394;10.414;2023-09-18T13:17:23;5.55;;;2.08;;
39518;SDS011;25200;53.394;10.414;2023-09-18T13:19:49;4.75;;;2.03;;
39518;SDS011;25200;53.394;10.414;2023-09-18T13:22:24;7.60;;;2.20;;
39518;SDS011;25200;53.394;10.414;2023-09-18T13:24:55;6.32;;;1.90;;
39518;SDS011;25200;53.394;10.414;2023-09-18T13:27:21;5.78;;;1.90;;
39518;SDS011;25200;53.394;10.414;2023-09-18T13:29:48;5.15;;;1.80;;
39518;SDS011;25200;53.394;10.414;2023-09-18T13:32:14;5.07;;;2.00;;
39518;SDS011;25200;53.394;10.414;2023-09-18T13:34:40;6.13;;;2.10;;
39518;SDS011;25200;53.394;10.414;2023-09-18T13:37:05;6.28;;;1.90;;
39518;SDS011;25200;53.394;10.414;2023-09-18T13:39:31;5.72;;;2.08;;
39518;SDS011;25200;53.394;10.414;2023-09-18T13:41:57;4.80;;;1.98;;
39518;SDS011;25200;53.394;10.414;2023-09-18T13:44:22;7.07;;;2.42;;
39518;SDS011;25200;53.394;10.414;2023-09-18T13:46:48;5.00;;;2.03;;
39518;SDS011;25200;53.394;10.414;2023-09-18T13:49:14;6.10;;;2.03;;
39518;SDS011;25200;53.394;10.414;2023-09-18T13:51:39;8.18;;;2.05;;
39518;SDS011;25200;53.394;10.414;2023-09-18T13:54:05;6.55;;;2.20;;
39518;SDS011;25200;53.394;10.414;2023-09-18T13:56:32;6.57;;;2.08;;
39518;SDS011;25200;53.394;10.414;2023-09-18T13:58:58;5.28;;;1.98;;
39518;SDS011;25200;53.394;10.414;2023-09-18T14:01:23;7.18;;;1.77;;
39518;SDS011;25200;53.394;10.414;2023-09-18T14:03:53;5.60;;;1.92;;
39518;SDS011;25200;53.394;10.414;2023-09-18T14:06:19;4.93;;;1.95;;
39518;SDS011;25200;53.394;10.414;2023-09-18T14:08:45;9.32;;;2.22;;
39518;SDS011;25200;53.394;10.414;2023-09-18T14:11:11;5.53;;;2.10;;
39518;SDS011;25200;53.394;10.414;2023-09-18T14:13:37;9.30;;;1.90;;
39518;SDS011;25200;53.394;10.414;2023-09-18T14:16:02;3.70;;;1.90;;
39518;SDS011;25200;53.394;10.414;2023-09-18T14:18:28;5.25;;;2.05;;
39518;SDS011;25200;53.394;10.414;2023-09-18T14:20:54;5.88;;;2.10;;
39518;SDS011;25200;53.394;10.414;2023-09-18T14:23:20;5.20;;;1.85;;
39518;SDS011;25200;53.394;10.414;2023-09-18T14:25:46;6.18;;;2.00;;
39518;SDS011;25200;53.394;10.414;2023-09-18T14:28:11;6.85;;;2.30;;
39518;SDS011;25200;53.394;10.414;2023-09-18T14:30:38;5.35;;;2.05;;
39518;SDS011;25200;53.394;10.414;2023-09-18T14:33:04;4.65;;;1.90;;
39518;SDS011;25200;53.394;10.414;2023-09-18T14:35:30;5.43;;;2.10;;
39518;SDS011;25200;53.394;10.414;2023-09-18T14:37:56;7.43;;;2.15;;
39518;SDS011;25200;53.394;10.414;2023-09-18T14:40:21;5.72;;;1.60;;
39518;SDS011;25200;53.394;10.414;2023-09-18T14:42:47;8.48;;;2.10;;
39518;SDS011;25200;53.394;10.414;2023-09-18T14:45:13;5.32;;;1.83;;
39518;SDS011;25200;53.394;10.414;2023-09-18T14:47:38;7.60;;;2.10;;